createdAt,value
2023-05-24T00:00:00.421Z,25.52
2023-05-24T00:01:00.501Z,25.50
2023-05-24T00:02:00.548Z,25.50
2023-05-24T00:03:00.691Z,25.50
2023-05-24T00:04:00.864Z,25.49
2023-05-24T00:05:00.829Z,25.53
2023-05-24T00:06:00.754Z,25.49
2023-05-24T00:07:00.763Z,25.49
2023-05-24T00:08:00.812Z,25.49
2023-05-24T00:09:00.804Z,25.49
2023-05-24T00:10:00.891Z,25.49
2023-05-24T00:11:00.926Z,25.46
2023-05-24T00:12:00.986Z,25.49
2023-05-24T00:13:01.057Z,25.46
2023-05-24T00:14:01.068Z,25.50
2023-05-24T00:15:01.139Z,25.49
2023-05-24T00:16:01.146Z,25.49
2023-05-24T00:17:01.218Z,25.49
2023-05-24T00:18:01.325Z,25.49
2023-05-24T00:19:01.303Z,25.46
2023-05-24T00:20:01.368Z,25.49
2023-05-24T00:21:01.448Z,25.49
2023-05-24T00:22:01.436Z,25.49
2023-05-24T00:23:01.479Z,25.46
2023-05-24T00:24:01.529Z,25.49
2023-05-24T00:25:01.560Z,25.50
2023-05-24T00:26:01.603Z,25.50
2023-05-24T00:27:01.679Z,25.48
2023-05-24T00:28:01.715Z,25.46
2023-05-24T00:29:01.776Z,25.49
2023-05-24T00:30:01.826Z,25.49
2023-05-24T00:31:01.892Z,25.46
2023-05-24T00:32:01.932Z,25.49
2023-05-24T00:33:02.005Z,25.48
2023-05-24T00:34:01.997Z,25.46
2023-05-24T00:35:02.085Z,25.46
2023-05-24T00:36:02.113Z,25.48
2023-05-24T00:37:02.150Z,25.49
2023-05-24T00:38:02.193Z,25.46
2023-05-24T00:39:02.250Z,25.46
2023-05-24T00:40:02.327Z,25.45
2023-05-24T00:41:02.323Z,25.45
2023-05-24T00:42:02.400Z,25.48
2023-05-24T00:43:02.437Z,25.46
2023-05-24T00:44:02.495Z,25.45
2023-05-24T00:45:02.548Z,25.45
2023-05-24T00:46:02.662Z,25.43
2023-05-24T00:47:02.670Z,25.43
2023-05-24T00:48:02.750Z,25.42
2023-05-24T00:49:02.760Z,25.42
2023-05-24T00:50:02.795Z,25.41
2023-05-24T00:51:02.879Z,25.39
2023-05-24T00:52:02.957Z,25.39
2023-05-24T00:53:02.982Z,25.39
2023-05-24T00:54:03.080Z,25.41
2023-05-24T00:55:03.133Z,25.42
2023-05-24T00:56:03.160Z,25.39
2023-05-24T00:57:03.226Z,25.42
2023-05-24T00:58:03.258Z,25.38
2023-05-24T00:59:03.346Z,25.36
2023-05-24T01:00:03.411Z,25.39
2023-05-24T01:01:03.513Z,25.38
2023-05-24T01:02:03.685Z,25.43
2023-05-24T01:03:03.605Z,25.41
2023-05-24T01:04:03.629Z,25.38
2023-05-24T01:05:03.683Z,25.38
2023-05-24T01:06:03.762Z,25.39
2023-05-24T01:07:03.845Z,25.38
2023-05-24T01:08:03.864Z,25.36
2023-05-24T01:09:03.939Z,25.36
2023-05-24T01:10:03.995Z,25.38
2023-05-24T01:11:04.059Z,25.35
2023-05-24T01:12:04.102Z,25.36
2023-05-24T01:13:04.179Z,25.35
2023-05-24T01:14:04.207Z,25.35
2023-05-24T01:15:04.289Z,25.35
2023-05-24T01:16:04.368Z,25.35
2023-05-24T01:17:04.422Z,25.35
2023-05-24T01:18:04.566Z,25.33
2023-05-24T01:19:04.555Z,25.33
2023-05-24T01:20:04.611Z,25.33
2023-05-24T01:21:04.674Z,25.29
2023-05-24T01:22:04.769Z,25.32
2023-05-24T01:23:04.778Z,25.33
2023-05-24T01:24:04.852Z,25.32
2023-05-24T01:25:04.915Z,25.35
2023-05-24T01:26:05.003Z,25.33
2023-05-24T01:27:05.071Z,25.29
2023-05-24T01:28:05.128Z,25.29
2023-05-24T01:29:05.216Z,25.28
2023-05-24T01:30:05.239Z,25.28
2023-05-24T01:31:05.325Z,25.29
2023-05-24T01:32:05.344Z,25.29
2023-05-24T01:33:05.400Z,25.28
2023-05-24T01:34:05.453Z,25.29
2023-05-24T01:35:05.532Z,25.31
2023-05-24T01:36:05.555Z,25.29
2023-05-24T01:37:05.653Z,25.28
2023-05-24T01:38:05.726Z,25.28
2023-05-24T01:39:05.760Z,25.25
2023-05-24T01:40:05.840Z,25.28
2023-05-24T01:41:05.931Z,25.26
2023-05-24T01:42:05.952Z,25.28
2023-05-24T01:43:05.991Z,25.28
2023-05-24T01:44:06.051Z,25.25
2023-05-24T01:45:06.090Z,25.26
2023-05-24T01:46:06.162Z,25.28
2023-05-24T01:47:06.252Z,25.25
2023-05-24T01:48:06.371Z,25.28
2023-05-24T01:49:06.286Z,25.25
2023-05-24T01:50:06.308Z,25.23
2023-05-24T01:51:06.299Z,25.25
2023-05-24T01:52:06.422Z,25.26
2023-05-24T01:53:06.395Z,25.25
2023-05-24T01:54:06.398Z,25.21
2023-05-24T01:55:06.401Z,25.23
2023-05-24T01:56:06.448Z,25.25
2023-05-24T01:57:06.458Z,25.23
2023-05-24T01:58:06.483Z,25.23
2023-05-24T01:59:06.526Z,25.22
2023-05-24T02:00:06.549Z,25.22
2023-05-24T02:01:06.643Z,25.21
2023-05-24T02:02:06.624Z,25.22
2023-05-24T02:03:06.798Z,25.21
2023-05-24T02:04:06.636Z,25.22
2023-05-24T02:05:06.681Z,25.21
2023-05-24T02:06:06.719Z,25.21
2023-05-24T02:07:06.727Z,25.18
2023-05-24T02:08:06.800Z,25.18
2023-05-24T02:09:06.837Z,25.19
2023-05-24T02:10:06.810Z,25.18
2023-05-24T02:11:06.868Z,25.18
2023-05-24T02:12:06.937Z,25.19
2023-05-24T02:13:06.985Z,25.17
2023-05-24T02:14:07.016Z,25.18
2023-05-24T02:15:07.077Z,25.17
2023-05-24T02:16:07.063Z,25.17
2023-05-24T02:17:07.162Z,25.17
2023-05-24T02:18:07.137Z,25.17
2023-05-24T02:19:07.160Z,25.14
2023-05-24T02:20:07.221Z,25.14
2023-05-24T02:21:07.181Z,25.15
2023-05-24T02:22:07.224Z,25.17
2023-05-24T02:23:07.244Z,25.14
2023-05-24T02:24:07.266Z,25.17
2023-05-24T02:25:07.275Z,25.14
2023-05-24T02:27:07.289Z,25.17
2023-05-24T02:28:07.265Z,25.12
2023-05-24T02:29:07.295Z,25.14
2023-05-24T02:30:07.259Z,25.12
2023-05-24T02:31:07.281Z,25.14
2023-05-24T02:32:07.261Z,25.14
2023-05-24T02:33:07.303Z,25.12
2023-05-24T02:34:07.253Z,25.14
2023-05-24T02:35:07.270Z,25.14
2023-05-24T02:36:07.271Z,25.11
2023-05-24T02:37:07.282Z,25.11
2023-05-24T02:38:07.280Z,25.12
2023-05-24T02:39:07.286Z,25.10
2023-05-24T02:40:07.284Z,25.08
2023-05-24T02:41:07.322Z,25.08
2023-05-24T02:42:07.333Z,25.07
2023-05-24T02:43:07.357Z,25.08
2023-05-24T02:44:07.339Z,25.07
2023-05-24T02:45:07.360Z,25.08
2023-05-24T02:46:07.410Z,25.10
2023-05-24T02:47:07.409Z,25.10
2023-05-24T02:48:07.452Z,25.08
2023-05-24T02:49:07.433Z,25.07
2023-05-24T02:50:07.454Z,25.05
2023-05-24T02:51:07.482Z,25.07
2023-05-24T02:52:07.445Z,25.07
2023-05-24T02:53:07.457Z,25.05
2023-05-24T02:54:07.436Z,25.04
2023-05-24T02:55:07.494Z,25.07
2023-05-24T02:56:07.473Z,25.07
2023-05-24T02:57:07.429Z,25.04
2023-05-24T02:58:07.448Z,25.05
2023-05-24T02:59:07.442Z,25.04
2023-05-24T03:00:07.422Z,25.05
2023-05-24T03:01:07.428Z,25.04
2023-05-24T03:02:07.470Z,25.04
2023-05-24T03:03:07.498Z,25.04
2023-05-24T03:04:07.487Z,25.02
2023-05-24T03:05:07.416Z,25.02
2023-05-24T03:06:07.407Z,25.01
2023-05-24T03:07:07.413Z,25.01
2023-05-24T03:08:07.395Z,24.99
2023-05-24T03:09:07.431Z,24.98
2023-05-24T03:10:07.406Z,25.01
2023-05-24T03:11:07.436Z,24.99
2023-05-24T03:12:07.400Z,24.99
2023-05-24T03:13:07.396Z,25.01
2023-05-24T03:14:07.409Z,24.99
2023-05-24T03:15:07.415Z,24.99
2023-05-24T03:16:07.432Z,24.97
2023-05-24T03:17:07.376Z,24.99
2023-05-24T03:18:07.478Z,24.99
2023-05-24T03:19:09.879Z,24.99
2023-05-24T03:20:07.502Z,24.98
2023-05-24T03:21:07.453Z,25.01
2023-05-24T03:22:07.398Z,24.97
2023-05-24T03:23:07.379Z,24.97
2023-05-24T03:24:07.358Z,25.01
2023-05-24T03:25:07.383Z,24.99
2023-05-24T03:26:07.343Z,24.98
2023-05-24T03:27:07.363Z,24.99
2023-05-24T03:28:07.349Z,24.95
2023-05-24T03:29:07.367Z,24.94
2023-05-24T03:30:07.386Z,24.97
2023-05-24T03:31:07.321Z,24.95
2023-05-24T03:32:07.367Z,24.95
2023-05-24T03:33:07.355Z,24.98
2023-05-24T03:34:07.290Z,24.94
2023-05-24T03:35:07.299Z,24.95
2023-05-24T03:36:07.277Z,24.95
2023-05-24T03:37:07.269Z,24.93
2023-05-24T03:38:07.249Z,24.94
2023-05-24T03:39:07.253Z,24.95
2023-05-24T03:40:07.290Z,24.95
2023-05-24T03:41:07.252Z,24.95
2023-05-24T03:42:07.267Z,24.94
2023-05-24T03:43:07.248Z,24.95
2023-05-24T03:44:07.252Z,24.94
2023-05-24T03:45:07.235Z,24.93
2023-05-24T03:46:07.217Z,24.94
2023-05-24T03:47:07.192Z,24.94
2023-05-24T03:48:07.193Z,24.94
2023-05-24T03:49:07.205Z,24.93
2023-05-24T03:50:07.176Z,24.94
2023-05-24T03:51:07.172Z,24.94
2023-05-24T03:52:07.190Z,24.93
2023-05-24T03:53:07.155Z,24.94
2023-05-24T03:54:07.186Z,24.94
2023-05-24T03:55:07.126Z,24.93
2023-05-24T03:56:07.153Z,24.91
2023-05-24T03:57:07.144Z,24.93
2023-05-24T03:58:07.082Z,24.93
2023-05-24T03:59:07.098Z,24.91
2023-05-24T04:00:07.114Z,24.94
2023-05-24T04:01:07.073Z,24.91
2023-05-24T04:02:07.079Z,24.93
2023-05-24T04:03:07.182Z,24.90
2023-05-24T04:04:07.083Z,24.88
2023-05-24T04:05:07.037Z,24.90
2023-05-24T04:06:07.060Z,24.88
2023-05-24T04:07:07.053Z,24.93
2023-05-24T04:08:07.033Z,24.90
2023-05-24T04:09:07.032Z,24.90
2023-05-24T04:10:06.996Z,24.87
2023-05-24T04:11:07.001Z,24.88
2023-05-24T04:12:07.031Z,24.90
2023-05-24T04:13:06.996Z,24.88
2023-05-24T04:14:06.986Z,24.87
2023-05-24T04:15:06.967Z,24.85
2023-05-24T04:16:06.979Z,24.87
2023-05-24T04:17:07.029Z,24.87
2023-05-24T04:18:07.056Z,24.87
2023-05-24T04:19:06.920Z,24.85
2023-05-24T04:20:06.991Z,24.85
2023-05-24T04:21:06.936Z,24.88
2023-05-24T04:22:06.904Z,24.87
2023-05-24T04:23:06.924Z,24.85
2023-05-24T04:24:06.922Z,24.85
2023-05-24T04:25:07.014Z,24.85
2023-05-24T04:26:06.913Z,24.84
2023-05-24T04:27:06.877Z,24.84
2023-05-24T04:28:06.912Z,24.84
2023-05-24T04:29:06.865Z,24.83
2023-05-24T04:30:06.879Z,24.83
2023-05-24T04:31:06.953Z,24.83
2023-05-24T04:32:06.836Z,24.83
2023-05-24T04:33:06.986Z,24.81
2023-05-24T04:34:06.839Z,24.83
2023-05-24T04:35:06.806Z,24.83
2023-05-24T04:36:06.847Z,24.81
2023-05-24T04:37:06.830Z,24.81
2023-05-24T04:38:06.802Z,24.81
2023-05-24T04:39:06.824Z,24.83
2023-05-24T04:40:06.790Z,24.84
2023-05-24T04:41:06.791Z,24.81
2023-05-24T04:42:06.769Z,24.83
2023-05-24T04:43:06.777Z,24.81
2023-05-24T04:44:06.769Z,24.83
2023-05-24T04:45:06.745Z,24.81
2023-05-24T04:46:08.937Z,24.81
2023-05-24T04:47:07.227Z,24.81
2023-05-24T04:48:07.070Z,24.83
2023-05-24T04:49:07.045Z,24.81
2023-05-24T04:50:07.076Z,24.81
2023-05-24T04:51:07.126Z,24.81
2023-05-24T04:52:07.136Z,24.81
2023-05-24T04:53:07.167Z,24.81
2023-05-24T04:54:07.215Z,24.81
2023-05-24T04:55:07.216Z,24.80
2023-05-24T04:56:07.239Z,24.81
2023-05-24T04:57:07.248Z,24.80
2023-05-24T04:58:07.271Z,24.78
2023-05-24T04:59:07.285Z,24.80
2023-05-24T05:00:07.326Z,24.80
2023-05-24T05:01:07.349Z,24.83
2023-05-24T05:02:07.463Z,24.81
2023-05-24T05:03:07.473Z,24.80
2023-05-24T05:04:07.575Z,24.80
2023-05-24T05:05:07.422Z,24.81
2023-05-24T05:06:07.447Z,24.80
2023-05-24T05:07:07.454Z,24.81
2023-05-24T05:08:07.465Z,24.78
2023-05-24T05:09:07.484Z,24.81
2023-05-24T05:10:07.519Z,24.81
2023-05-24T05:11:07.540Z,24.80
2023-05-24T05:12:07.553Z,24.81
2023-05-24T05:13:07.568Z,24.80
2023-05-24T05:14:07.588Z,24.80
2023-05-24T05:15:07.599Z,24.80
2023-05-24T05:16:07.626Z,24.83
2023-05-24T05:17:07.658Z,24.81
2023-05-24T05:18:07.734Z,24.83
2023-05-24T05:19:07.686Z,24.80
2023-05-24T05:20:07.741Z,24.80
2023-05-24T05:21:07.722Z,24.81
2023-05-24T05:22:07.761Z,24.83
2023-05-24T05:23:07.768Z,24.84
2023-05-24T05:24:07.757Z,24.83
2023-05-24T05:25:07.804Z,24.81
2023-05-24T05:26:07.805Z,24.80
2023-05-24T05:27:07.815Z,24.81
2023-05-24T05:28:07.853Z,24.83
2023-05-24T05:29:07.859Z,24.83
2023-05-24T05:30:07.843Z,24.83
2023-05-24T05:31:07.857Z,24.84
2023-05-24T05:32:07.916Z,24.84
2023-05-24T05:33:07.991Z,24.81
2023-05-24T05:34:07.888Z,24.83
2023-05-24T05:35:07.941Z,24.84
2023-05-24T05:36:07.924Z,24.85
2023-05-24T05:37:07.940Z,24.84
2023-05-24T05:38:07.949Z,24.88
2023-05-24T05:39:07.962Z,24.85
2023-05-24T05:40:07.954Z,24.84
2023-05-24T05:41:07.971Z,24.85
2023-05-24T05:42:07.968Z,24.87
2023-05-24T05:43:07.967Z,24.85
2023-05-24T05:44:07.997Z,24.85
2023-05-24T05:45:08.109Z,24.85
2023-05-24T05:46:08.006Z,24.87
2023-05-24T05:47:07.996Z,24.84
2023-05-24T05:48:08.078Z,24.87
2023-05-24T05:49:08.045Z,24.85
2023-05-24T05:50:08.043Z,24.84
2023-05-24T05:51:08.035Z,24.88
2023-05-24T05:52:08.035Z,24.87
2023-05-24T05:53:08.062Z,24.87
2023-05-24T05:54:08.021Z,24.85
2023-05-24T05:55:08.025Z,24.87
2023-05-24T05:56:08.075Z,24.88
2023-05-24T05:57:08.078Z,24.87
2023-05-24T05:58:08.060Z,24.85
2023-05-24T05:59:08.107Z,24.85
2023-05-24T06:00:08.066Z,24.88
2023-05-24T06:01:08.089Z,24.87
2023-05-24T06:02:08.217Z,24.88
2023-05-24T06:03:08.252Z,24.87
2023-05-24T06:04:08.328Z,24.88
2023-05-24T06:05:08.175Z,24.90
2023-05-24T06:06:08.167Z,24.85
2023-05-24T06:07:08.165Z,24.85
2023-05-24T06:08:08.199Z,24.88
2023-05-24T06:09:08.204Z,24.88
2023-05-24T06:10:08.187Z,24.88
2023-05-24T06:11:08.222Z,24.88
2023-05-24T06:12:08.171Z,24.87
2023-05-24T06:13:08.207Z,24.87
2023-05-24T06:14:08.221Z,24.87
2023-05-24T06:15:08.263Z,24.88
2023-05-24T06:16:08.274Z,24.87
2023-05-24T06:17:08.280Z,24.84
2023-05-24T06:18:08.270Z,24.87
2023-05-24T06:19:08.306Z,24.90
2023-05-24T06:20:08.376Z,24.87
2023-05-24T06:21:08.326Z,24.87
2023-05-24T06:22:08.303Z,24.88
2023-05-24T06:23:08.339Z,24.85
2023-05-24T06:24:08.375Z,24.88
2023-05-24T06:25:08.386Z,24.87
2023-05-24T06:26:08.372Z,24.87
2023-05-24T06:27:08.389Z,24.85
2023-05-24T06:28:08.421Z,24.85
2023-05-24T06:29:08.438Z,24.87
2023-05-24T06:30:08.491Z,24.87
2023-05-24T06:31:08.485Z,24.87
2023-05-24T06:32:08.515Z,24.87
2023-05-24T06:33:08.502Z,24.87
2023-05-24T06:34:08.512Z,24.85
2023-05-24T06:35:08.535Z,24.87
2023-05-24T06:36:08.538Z,24.85
2023-05-24T06:37:08.559Z,24.88
2023-05-24T06:38:08.577Z,24.85
2023-05-24T06:39:08.550Z,24.90
2023-05-24T06:40:08.565Z,24.88
2023-05-24T06:41:08.606Z,24.88
2023-05-24T06:42:08.604Z,24.91
2023-05-24T06:43:08.588Z,24.90
2023-05-24T06:44:08.610Z,24.90
2023-05-24T06:45:08.733Z,24.90
2023-05-24T06:46:08.624Z,24.91
2023-05-24T06:47:08.680Z,24.90
2023-05-24T06:48:08.799Z,24.90
2023-05-24T06:49:08.736Z,24.91
2023-05-24T06:50:08.657Z,24.91
2023-05-24T06:51:08.649Z,24.93
2023-05-24T06:52:08.697Z,24.93
2023-05-24T06:53:08.659Z,24.94
2023-05-24T06:54:08.685Z,24.93
2023-05-24T06:55:08.714Z,24.93
2023-05-24T06:56:08.705Z,24.93
2023-05-24T06:57:08.689Z,24.93
2023-05-24T06:58:08.698Z,24.94
2023-05-24T06:59:08.747Z,24.95
2023-05-24T07:00:08.761Z,24.94
2023-05-24T07:01:08.871Z,24.93
2023-05-24T07:02:08.770Z,24.93
2023-05-24T07:03:08.780Z,24.93
2023-05-24T07:04:08.807Z,24.93
2023-05-24T07:05:08.774Z,24.94
2023-05-24T07:06:08.794Z,24.93
2023-05-24T07:07:08.790Z,24.94
2023-05-24T07:08:08.797Z,24.97
2023-05-24T07:09:08.810Z,24.94
2023-05-24T07:10:08.838Z,24.95
2023-05-24T07:11:08.885Z,24.95
2023-05-24T07:12:09.279Z,24.98
2023-05-24T07:13:08.811Z,24.98
2023-05-24T07:14:10.923Z,24.97
2023-05-24T07:15:08.837Z,24.97
2023-05-24T07:16:08.832Z,24.98
2023-05-24T07:17:08.957Z,24.97
2023-05-24T07:18:08.937Z,24.97
2023-05-24T07:19:08.833Z,24.98
2023-05-24T07:20:09.026Z,24.97
2023-05-24T07:21:08.915Z,24.99
2023-05-24T07:22:08.854Z,25.01
2023-05-24T07:23:08.873Z,24.99
2023-05-24T07:24:08.870Z,24.99
2023-05-24T07:25:08.865Z,24.99
2023-05-24T07:26:08.880Z,24.99
2023-05-24T07:27:08.866Z,25.01
2023-05-24T07:28:08.878Z,25.01
2023-05-24T07:29:08.883Z,25.05
2023-05-24T07:30:19.698Z,25.04
2023-05-24T07:31:09.907Z,25.02
2023-05-24T07:32:08.911Z,25.05
2023-05-24T07:33:09.039Z,25.05
2023-05-24T07:34:08.859Z,25.05
2023-05-24T07:35:08.874Z,25.05
2023-05-24T07:36:08.881Z,25.07
2023-05-24T07:37:08.823Z,25.05
2023-05-24T07:38:08.855Z,25.04
2023-05-24T07:39:08.812Z,25.10
2023-05-24T07:40:08.811Z,25.10
2023-05-24T07:41:08.790Z,25.11
2023-05-24T07:42:08.804Z,25.08
2023-05-24T07:43:08.782Z,25.02
2023-05-24T07:44:08.799Z,25.10
2023-05-24T07:45:08.773Z,25.11
2023-05-24T07:46:08.785Z,25.14
2023-05-24T07:47:08.749Z,25.17
2023-05-24T07:48:08.825Z,25.19
2023-05-24T07:49:08.767Z,25.18
2023-05-24T07:50:08.738Z,25.22
2023-05-24T07:51:08.740Z,25.23
2023-05-24T07:52:08.728Z,25.26
2023-05-24T07:53:08.717Z,25.29
2023-05-24T07:54:08.708Z,25.32
2023-05-24T07:55:08.721Z,25.39
2023-05-24T07:56:08.689Z,25.41
2023-05-24T07:57:09.544Z,25.45
2023-05-24T07:58:08.746Z,25.49
2023-05-24T07:59:08.793Z,25.53
2023-05-24T08:00:08.819Z,25.59
2023-05-24T08:01:08.928Z,25.63
2023-05-24T08:02:08.852Z,25.68
2023-05-24T08:03:09.039Z,25.72
2023-05-24T08:04:08.974Z,25.75
2023-05-24T08:05:08.915Z,25.77
2023-05-24T08:06:08.885Z,25.79
2023-05-24T08:07:10.869Z,25.82
2023-05-24T08:08:08.900Z,25.89
2023-05-24T08:09:08.915Z,25.93
2023-05-24T08:10:08.913Z,25.91
2023-05-24T08:11:08.935Z,25.94
2023-05-24T08:12:08.900Z,25.99
2023-05-24T08:13:08.910Z,26.00
2023-05-24T08:14:08.912Z,26.01
2023-05-24T08:15:08.969Z,26.03
2023-05-24T08:16:09.043Z,26.07
2023-05-24T08:17:09.031Z,26.08
2023-05-24T08:18:09.150Z,26.10
2023-05-24T08:19:09.157Z,26.16
2023-05-24T08:20:09.316Z,26.13
2023-05-24T08:21:09.314Z,26.17
2023-05-24T08:22:09.358Z,26.17
2023-05-24T08:23:09.397Z,26.19
2023-05-24T08:24:09.794Z,26.21
2023-05-24T08:25:09.533Z,26.21
2023-05-24T08:26:09.608Z,26.23
2023-05-24T08:27:09.651Z,26.24
2023-05-24T08:28:09.760Z,26.28
2023-05-24T08:29:09.781Z,26.27
2023-05-24T08:30:09.832Z,26.28
2023-05-24T08:31:09.899Z,26.30
2023-05-24T08:32:10.040Z,26.31
2023-05-24T08:33:10.021Z,26.34
2023-05-24T08:34:10.010Z,26.34
2023-05-24T08:35:19.590Z,26.35
2023-05-24T08:36:11.058Z,26.35
2023-05-24T08:37:10.084Z,26.34
2023-05-24T08:38:10.048Z,26.34
2023-05-24T08:39:10.043Z,26.28
2023-05-24T08:40:10.100Z,26.21
2023-05-24T08:41:10.053Z,26.20
2023-05-24T08:42:10.615Z,26.19
2023-05-24T08:43:10.006Z,26.17
2023-05-24T08:44:10.032Z,26.17
2023-05-24T08:45:09.997Z,26.19
2023-05-24T08:46:10.015Z,26.19
2023-05-24T08:47:09.992Z,26.20
2023-05-24T08:48:10.103Z,26.21
2023-05-24T08:49:10.069Z,26.21
2023-05-24T08:50:09.987Z,26.23
2023-05-24T08:51:09.948Z,26.23
2023-05-24T08:52:09.965Z,26.27
2023-05-24T08:53:10.001Z,26.27
2023-05-24T08:54:10.021Z,26.26
2023-05-24T08:55:10.021Z,26.26
2023-05-24T08:56:10.066Z,26.26
2023-05-24T08:57:10.084Z,26.24
2023-05-24T08:58:10.077Z,26.26
2023-05-24T08:59:10.112Z,26.23
2023-05-24T09:00:10.153Z,26.26
2023-05-24T09:01:10.211Z,26.23
2023-05-24T09:02:10.189Z,26.24
2023-05-24T09:03:10.246Z,26.26
2023-05-24T09:04:10.267Z,26.26
2023-05-24T09:05:10.204Z,26.26
2023-05-24T09:06:10.176Z,26.24
2023-05-24T09:07:10.174Z,26.23
2023-05-24T09:08:10.249Z,26.26
2023-05-24T09:09:10.208Z,26.26
2023-05-24T09:10:10.231Z,26.26
2023-05-24T09:11:10.240Z,26.26
2023-05-24T09:12:11.096Z,26.27
2023-05-24T09:13:10.264Z,26.27
2023-05-24T09:14:10.273Z,26.28
2023-05-24T09:15:10.257Z,26.31
2023-05-24T09:16:10.266Z,26.32
2023-05-24T09:17:10.210Z,26.32
2023-05-24T09:18:10.245Z,26.34
2023-05-24T09:19:10.176Z,26.32
2023-05-24T09:20:10.400Z,26.32
2023-05-24T09:21:10.199Z,26.34
2023-05-24T09:22:10.172Z,26.34
2023-05-24T09:23:10.157Z,26.35
2023-05-24T09:24:10.156Z,26.37
2023-05-24T09:25:10.274Z,26.37
2023-05-24T09:26:10.196Z,26.37
2023-05-24T09:27:10.144Z,26.40
2023-05-24T09:28:10.191Z,26.40
2023-05-24T09:29:10.115Z,26.42
2023-05-24T09:30:10.395Z,26.42
2023-05-24T09:31:10.139Z,26.40
2023-05-24T09:32:10.099Z,26.40
2023-05-24T09:33:10.147Z,26.42
2023-05-24T09:34:10.076Z,26.40
2023-05-24T09:35:10.416Z,26.40
2023-05-24T09:36:10.107Z,26.41
2023-05-24T09:37:10.083Z,26.42
2023-05-24T09:38:10.064Z,26.41
2023-05-24T09:39:10.032Z,26.41
2023-05-24T09:40:10.059Z,26.41
2023-05-24T09:41:10.040Z,26.41
2023-05-24T09:42:10.031Z,26.38
2023-05-24T09:43:10.202Z,26.38
2023-05-24T09:44:10.012Z,26.38
2023-05-24T09:45:10.062Z,26.38
2023-05-24T09:46:10.003Z,26.40
2023-05-24T09:47:10.037Z,26.38
2023-05-24T09:48:10.033Z,26.37
2023-05-24T09:49:09.985Z,26.38
2023-05-24T09:50:09.969Z,26.35
2023-05-24T09:51:10.112Z,26.38
2023-05-24T09:52:10.093Z,26.35
2023-05-24T09:53:09.935Z,26.34
2023-05-24T09:54:09.946Z,26.35
2023-05-24T09:55:09.950Z,26.37
2023-05-24T09:56:09.965Z,26.35
2023-05-24T09:57:09.926Z,26.34
2023-05-24T09:58:09.893Z,26.32
2023-05-24T09:59:09.949Z,26.32
2023-05-24T10:00:09.877Z,26.31
2023-05-24T10:01:09.919Z,26.31
2023-05-24T10:02:09.909Z,26.32
2023-05-24T10:03:09.923Z,26.30
2023-05-24T10:04:10.518Z,26.32
2023-05-24T10:05:09.887Z,26.31
2023-05-24T10:06:09.842Z,26.31
2023-05-24T10:07:09.832Z,26.32
2023-05-24T10:08:09.833Z,26.30
2023-05-24T10:09:09.950Z,26.28
2023-05-24T10:10:09.813Z,26.30
2023-05-24T10:11:09.823Z,26.28
2023-05-24T10:12:09.838Z,26.30
2023-05-24T10:13:09.789Z,26.27
2023-05-24T10:14:09.779Z,26.28
2023-05-24T10:15:09.767Z,26.27
2023-05-24T10:16:09.907Z,26.28
2023-05-24T10:17:11.382Z,26.27
2023-05-24T10:18:12.236Z,26.28
2023-05-24T10:19:09.789Z,26.27
2023-05-24T10:20:09.781Z,26.27
2023-05-24T10:21:09.815Z,26.27
2023-05-24T10:22:09.734Z,26.26
2023-05-24T10:23:09.732Z,26.26
2023-05-24T10:24:09.730Z,26.27
2023-05-24T10:25:09.749Z,26.24
2023-05-24T10:26:09.777Z,26.26
2023-05-24T10:27:09.695Z,26.26
2023-05-24T10:28:09.696Z,26.27
2023-05-24T10:29:09.657Z,26.26
2023-05-24T10:30:12.173Z,26.26
2023-05-24T10:31:09.700Z,26.26
2023-05-24T10:32:09.761Z,26.27
2023-05-24T10:33:09.727Z,26.26
2023-05-24T10:34:09.664Z,26.26
2023-05-24T10:35:09.638Z,26.23
2023-05-24T10:36:09.980Z,26.23
2023-05-24T10:37:09.609Z,26.26
2023-05-24T10:38:09.652Z,26.26
2023-05-24T10:39:09.596Z,26.27
2023-05-24T10:40:09.613Z,26.23
2023-05-24T10:41:09.724Z,26.24
2023-05-24T10:42:10.127Z,26.24
2023-05-24T10:43:09.588Z,26.24
2023-05-24T10:44:10.284Z,26.27
2023-05-24T10:45:09.572Z,26.24
2023-05-24T10:46:09.581Z,26.23
2023-05-24T10:47:09.569Z,26.26
2023-05-24T10:48:09.599Z,26.26
2023-05-24T10:49:09.581Z,26.24
2023-05-24T10:50:09.540Z,26.26
2023-05-24T10:51:09.515Z,26.26
2023-05-24T10:52:09.521Z,26.24
2023-05-24T10:53:09.488Z,26.23
2023-05-24T10:54:09.504Z,26.24
2023-05-24T10:55:09.571Z,26.23
2023-05-24T10:56:09.474Z,26.23
2023-05-24T10:57:09.507Z,26.23
2023-05-24T10:58:09.481Z,26.21
2023-05-24T10:59:09.480Z,26.24
2023-05-24T11:00:10.090Z,26.21
2023-05-24T11:01:09.450Z,26.24
2023-05-24T11:02:09.636Z,26.26
2023-05-24T11:03:09.798Z,26.26
2023-05-24T11:04:09.433Z,26.31
2023-05-24T11:05:09.488Z,26.31
2023-05-24T11:06:09.414Z,26.31
2023-05-24T11:07:09.436Z,26.34
2023-05-24T11:08:09.472Z,26.35
2023-05-24T11:09:09.396Z,26.40
2023-05-24T11:10:09.412Z,26.41
2023-05-24T11:11:23.328Z,26.41
2023-05-24T11:12:10.364Z,26.42
2023-05-24T11:13:09.379Z,26.45
2023-05-24T11:14:09.349Z,26.47
2023-05-24T11:15:09.363Z,26.49
2023-05-24T11:16:09.381Z,26.49
2023-05-24T11:17:09.350Z,26.51
2023-05-24T11:18:11.028Z,26.51
2023-05-24T11:19:09.325Z,26.51
2023-05-24T11:20:09.377Z,26.55
2023-05-24T11:21:09.337Z,26.56
2023-05-24T11:22:09.418Z,26.58
2023-05-24T11:23:09.523Z,26.58
2023-05-24T11:24:09.546Z,26.59
2023-05-24T11:25:09.568Z,26.59
2023-05-24T11:26:09.625Z,26.62
2023-05-24T11:27:09.696Z,26.68
2023-05-24T11:28:09.751Z,26.69
2023-05-24T11:29:09.777Z,26.72
2023-05-24T11:30:09.871Z,26.75
2023-05-24T11:31:09.964Z,26.74
2023-05-24T11:32:10.163Z,26.74
2023-05-24T11:33:10.065Z,26.74
2023-05-24T11:34:10.093Z,26.68
2023-05-24T11:35:10.077Z,26.67
2023-05-24T11:36:10.049Z,26.63
2023-05-24T11:37:10.072Z,26.61
2023-05-24T11:38:10.069Z,26.56
2023-05-24T11:39:10.054Z,26.54
2023-05-24T11:40:10.240Z,26.48
2023-05-24T11:41:10.085Z,26.47
2023-05-24T11:42:10.109Z,26.47
2023-05-24T11:43:10.069Z,26.42
2023-05-24T11:44:10.106Z,26.41
2023-05-24T11:45:10.141Z,26.37
2023-05-24T11:46:10.194Z,26.32
2023-05-24T11:47:10.229Z,26.28
2023-05-24T11:48:10.281Z,26.28
2023-05-24T11:49:10.233Z,26.24
2023-05-24T11:50:10.384Z,26.20
2023-05-24T11:51:10.310Z,26.20
2023-05-24T11:52:10.366Z,26.16
2023-05-24T11:53:10.402Z,26.16
2023-05-24T11:54:10.407Z,26.14
2023-05-24T11:55:10.489Z,26.10
2023-05-24T11:56:10.528Z,26.08
2023-05-24T11:57:10.560Z,26.04
2023-05-24T11:58:10.606Z,26.03
2023-05-24T11:59:10.675Z,26.01
2023-05-24T12:00:10.759Z,25.96
2023-05-24T12:01:10.803Z,25.94
2023-05-24T12:02:10.930Z,25.94
2023-05-24T12:03:10.990Z,25.94
2023-05-24T12:04:11.008Z,25.91
2023-05-24T12:05:11.018Z,25.91
2023-05-24T12:06:11.066Z,25.90
2023-05-24T12:07:11.132Z,25.89
2023-05-24T12:08:12.698Z,25.86
2023-05-24T12:09:11.166Z,25.83
2023-05-24T12:10:11.208Z,25.84
2023-05-24T12:11:11.232Z,25.84
2023-05-24T12:12:11.245Z,25.83
2023-05-24T12:13:11.248Z,25.82
2023-05-24T12:14:11.241Z,25.77
2023-05-24T12:15:11.275Z,25.79
2023-05-24T12:16:11.289Z,25.79
2023-05-24T12:17:11.256Z,25.77
2023-05-24T12:18:11.533Z,25.76
2023-05-24T12:19:20.099Z,25.75
2023-05-24T12:20:12.358Z,25.72
2023-05-24T12:21:11.214Z,25.72
2023-05-24T12:22:11.240Z,25.69
2023-05-24T12:23:11.213Z,25.70
2023-05-24T12:24:11.218Z,25.68
2023-05-24T12:25:11.199Z,25.69
2023-05-24T12:26:11.217Z,25.68
2023-05-24T12:27:11.166Z,25.69
2023-05-24T12:28:11.192Z,25.66
2023-05-24T12:29:11.158Z,25.65
2023-05-24T12:30:11.155Z,25.63
2023-05-24T12:31:11.153Z,25.63
2023-05-24T12:32:11.167Z,25.60
2023-05-24T12:33:11.191Z,25.60
2023-05-24T12:34:11.115Z,25.60
2023-05-24T12:35:11.136Z,25.62
2023-05-24T12:36:11.147Z,25.60
2023-05-24T12:37:11.105Z,25.60
2023-05-24T12:38:11.108Z,25.60
2023-05-24T12:39:11.103Z,25.60
2023-05-24T12:40:11.099Z,25.60
2023-05-24T12:41:13.126Z,25.60
2023-05-24T12:42:11.094Z,25.59
2023-05-24T12:43:11.072Z,25.62
2023-05-24T12:44:11.057Z,25.60
2023-05-24T12:45:11.076Z,25.63
2023-05-24T12:46:11.061Z,25.60
2023-05-24T12:47:11.098Z,25.59
2023-05-24T12:48:11.075Z,25.60
2023-05-24T12:49:11.049Z,25.58
2023-05-24T12:50:11.038Z,25.62
2023-05-24T12:51:11.023Z,25.60
2023-05-24T12:52:11.012Z,25.59
2023-05-24T12:53:10.996Z,25.58